Babb, Montana
Current Conditions -  °F | °C
As of 4:51 PM on Wednesday 26 Nov 2014 (Local Time) from KCTB Reporting Station
Light Snow Light Snow  
Wind Chill: 20°   Ceiling: 400
Heat Index: 28°   Visibility: 5mi
Dew Point: 27°   Wind: 8mph
Humidity: 93%   Direction: 130°SE
Pressure: 30.07"   Gusts: NA
Location:  48.85°N, 113.44°W
Report Text: KCTB 262351Z AUTO 13007KT 5SM -SN BR OVC004 M02/M03 A3007 RMK AO2 P0000
Loading
Personal Weather Stations






























Interactive Weather Map New forecast layout! Learn more

10-Day Weather Forecast

Advertisements
Track Severe Weather on mobile